TEG weather

Tenkodogo Airport
Tenkodogo, Boulgou, Burkina Faso

Public forecast

Using degrees Celsius for public forecast. Weather courtesy of forecast.io.

Closest aviation weather report (METAR) to Tenkodogo Airport

Report is more than 6 hours old.

Closest report is Fada N'gourma Airport, 44.4 nm (82.2 km) ENE. Retrieved 2009/09/21 17:00 UTC (11 years ago):

DFEF 211700Z 00000KT 9999 FEW0226 TCU BKN260 30/25

Closest aviation forecast (TAF) to Tenkodogo Airport

Closest forecast is Ouagadougou Airport, 75.0 nm (138.9 km) WNW. Retrieved 2020-04-07 00:00 UTC (1 hour ago):

TAF DFFD 062300Z 0700/0806 18008KT CAVOK